createdAt,value
2018-12-19T00:00:56.785Z,100.00
2018-12-19T00:02:03.100Z,100.00
2018-12-19T00:03:09.466Z,100.00
2018-12-19T00:04:15.878Z,100.00
2018-12-19T00:05:22.206Z,100.00
2018-12-19T00:06:28.548Z,100.00
2018-12-19T00:07:34.927Z,100.00
2018-12-19T00:08:41.358Z,100.00
2018-12-19T00:09:47.698Z,100.00
2018-12-19T00:10:54.923Z,100.00
2018-12-19T00:12:01.308Z,100.00
2018-12-19T00:13:07.459Z,100.00
2018-12-19T00:14:13.869Z,100.00
2018-12-19T00:15:20.233Z,100.00
2018-12-19T00:16:26.621Z,100.00
2018-12-19T00:17:32.976Z,100.00
2018-12-19T00:18:39.384Z,100.00
2018-12-19T00:19:45.792Z,100.00
2018-12-19T00:20:52.180Z,100.00
2018-12-19T00:21:58.505Z,100.00
2018-12-19T00:23:04.813Z,100.00
2018-12-19T00:24:11.141Z,100.00
2018-12-19T00:25:17.283Z,100.00
2018-12-19T00:26:23.627Z,100.00
2018-12-19T00:27:29.988Z,100.00
2018-12-19T00:28:36.332Z,100.00
2018-12-19T00:29:42.760Z,100.00
2018-12-19T00:30:49.098Z,100.00
2018-12-19T00:31:55.437Z,100.00
2018-12-19T00:33:01.754Z,100.00
2018-12-19T00:34:08.117Z,100.00
2018-12-19T00:35:14.493Z,100.00
2018-12-19T00:36:20.858Z,100.00
2018-12-19T00:37:27.193Z,100.00
2018-12-19T00:38:33.547Z,100.00
2018-12-19T00:39:39.908Z,100.00
2018-12-19T00:40:46.293Z,100.00
2018-12-19T00:41:52.666Z,100.00
2018-12-19T00:42:59.019Z,100.00
2018-12-19T00:44:05.329Z,100.00
2018-12-19T00:45:11.689Z,100.00
2018-12-19T00:46:18.026Z,100.00
2018-12-19T00:47:24.372Z,100.00
2018-12-19T00:48:30.771Z,100.00
2018-12-19T00:49:37.151Z,100.00
2018-12-19T00:50:43.502Z,100.00
2018-12-19T00:51:49.828Z,100.00
2018-12-19T00:52:56.173Z,100.00
2018-12-19T00:54:02.158Z,100.00
2018-12-19T00:55:08.209Z,100.00
2018-12-19T00:56:15.147Z,100.00
2018-12-19T00:57:22.189Z,100.00
2018-12-19T00:58:28.549Z,100.00
2018-12-19T00:59:34.942Z,100.00
2018-12-19T01:00:41.303Z,100.00
2018-12-19T01:01:47.648Z,100.00
2018-12-19T01:02:54.027Z,100.00
2018-12-19T01:04:00.393Z,100.00
2018-12-19T01:05:06.081Z,100.00
2018-12-19T01:06:12.452Z,100.00
2018-12-19T01:07:18.817Z,100.00
2018-12-19T01:08:25.114Z,100.00
2018-12-19T01:09:31.438Z,100.00
2018-12-19T01:10:37.558Z,100.00
2018-12-19T01:11:43.889Z,100.00
2018-12-19T01:12:50.218Z,100.00
2018-12-19T01:13:56.212Z,100.00
2018-12-19T01:15:02.592Z,100.00
2018-12-19T01:16:08.930Z,100.00
2018-12-19T01:17:15.625Z,100.00
2018-12-19T01:18:21.989Z,100.00
2018-12-19T01:19:28.411Z,100.00
2018-12-19T01:20:34.807Z,100.00
2018-12-19T01:21:41.112Z,100.00
2018-12-19T01:22:47.518Z,100.00
2018-12-19T01:23:53.871Z,100.00
2018-12-19T01:25:00.248Z,100.00
2018-12-19T01:26:06.209Z,100.00
2018-12-19T01:27:12.608Z,100.00
2018-12-19T01:28:18.937Z,100.00
2018-12-19T01:29:25.307Z,100.00
2018-12-19T01:30:31.649Z,100.00
2018-12-19T01:31:38.002Z,100.00
2018-12-19T01:32:44.321Z,100.00
2018-12-19T01:33:50.661Z,100.00
2018-12-19T01:34:57.067Z,100.00
2018-12-19T01:36:03.430Z,100.00
2018-12-19T01:37:09.771Z,100.00
2018-12-19T01:38:16.147Z,100.00
2018-12-19T01:39:22.982Z,100.00
2018-12-19T01:40:29.342Z,100.00
2018-12-19T01:41:35.704Z,100.00
2018-12-19T01:42:42.086Z,100.00
2018-12-19T01:43:48.404Z,100.00
2018-12-19T01:44:54.794Z,100.00
2018-12-19T01:46:01.190Z,100.00
2018-12-19T01:47:07.521Z,100.00
2018-12-19T01:48:13.924Z,100.00
2018-12-19T01:49:20.332Z,100.00
2018-12-19T01:50:26.733Z,100.00
2018-12-19T01:51:32.910Z,100.00
2018-12-19T01:52:39.246Z,100.00
2018-12-19T01:53:45.605Z,100.00
2018-12-19T01:54:51.969Z,100.00
2018-12-19T01:55:58.296Z,100.00
2018-12-19T01:57:04.665Z,100.00
2018-12-19T01:58:10.983Z,100.00
2018-12-19T01:59:17.629Z,100.00
2018-12-19T02:00:23.792Z,100.00
2018-12-19T02:01:28.758Z,100.00
2018-12-19T02:02:34.068Z,100.00
2018-12-19T02:03:39.368Z,100.00
2018-12-19T02:04:44.670Z,100.00
2018-12-19T02:05:50.826Z,100.00
2018-12-19T02:06:57.191Z,100.00
2018-12-19T02:08:03.529Z,100.00
2018-12-19T02:09:09.472Z,100.00
2018-12-19T02:10:15.832Z,100.00
2018-12-19T02:11:22.191Z,100.00
2018-12-19T02:12:28.508Z,100.00
2018-12-19T02:13:34.884Z,100.00
2018-12-19T02:14:41.221Z,100.00
2018-12-19T02:15:47.567Z,100.00
2018-12-19T02:16:53.898Z,100.00
2018-12-19T02:18:00.243Z,100.00
2018-12-19T02:19:06.609Z,100.00
2018-12-19T02:20:12.960Z,100.00
2018-12-19T02:21:19.348Z,100.00
2018-12-19T02:22:26.923Z,100.00
2018-12-19T02:23:32.544Z,100.00
2018-12-19T02:24:38.899Z,100.00
2018-12-19T02:25:44.923Z,100.00
2018-12-19T02:26:51.264Z,100.00
2018-12-19T02:27:57.624Z,100.00
2018-12-19T02:29:03.608Z,100.00
2018-12-19T02:30:09.257Z,100.00
2018-12-19T02:31:15.598Z,100.00
2018-12-19T02:32:21.961Z,100.00
2018-12-19T02:33:28.322Z,100.00
2018-12-19T02:34:34.705Z,100.00
2018-12-19T02:35:41.046Z,100.00
2018-12-19T02:36:47.411Z,100.00
2018-12-19T02:37:53.755Z,100.00
2018-12-19T02:39:00.110Z,100.00
2018-12-19T02:40:05.776Z,100.00
2018-12-19T02:41:12.113Z,100.00
2018-12-19T02:42:18.440Z,100.00
2018-12-19T02:43:24.795Z,100.00
2018-12-19T02:44:31.149Z,100.00
2018-12-19T02:45:37.509Z,100.00
2018-12-19T02:46:43.889Z,100.00
2018-12-19T02:47:50.331Z,100.00
2018-12-19T02:48:56.722Z,100.00
2018-12-19T02:50:02.681Z,100.00
2018-12-19T02:51:09.037Z,100.00
2018-12-19T02:52:15.381Z,100.00
2018-12-19T02:53:21.675Z,100.00
2018-12-19T02:54:28.031Z,100.00
2018-12-19T02:55:34.396Z,100.00
2018-12-19T02:56:40.714Z,100.00
2018-12-19T02:57:47.036Z,100.00
2018-12-19T02:58:53.389Z,100.00
2018-12-19T02:59:59.767Z,100.00
2018-12-19T03:01:06.138Z,100.00
2018-12-19T03:02:12.515Z,100.00
2018-12-19T03:03:19.302Z,100.00
2018-12-19T03:04:25.684Z,100.00
2018-12-19T03:05:31.996Z,100.00
2018-12-19T03:06:38.581Z,100.00
2018-12-19T03:07:45.341Z,100.00
2018-12-19T03:08:51.720Z,100.00
2018-12-19T03:09:58.029Z,100.00
2018-12-19T03:11:04.707Z,100.00
2018-12-19T03:12:11.070Z,100.00
2018-12-19T03:13:17.429Z,100.00
2018-12-19T03:14:25.658Z,100.00
2018-12-19T03:15:32.011Z,100.00
2018-12-19T03:16:38.079Z,100.00
2018-12-19T03:17:44.447Z,100.00
2018-12-19T03:18:50.770Z,100.00
2018-12-19T03:19:57.137Z,100.00
2018-12-19T03:21:03.536Z,100.00
2018-12-19T03:22:09.907Z,100.00
2018-12-19T03:23:16.273Z,100.00
2018-12-19T03:24:22.666Z,100.00
2018-12-19T03:25:29.379Z,100.00
2018-12-19T03:26:37.607Z,100.00
2018-12-19T03:27:45.583Z,100.00
2018-12-19T03:28:51.981Z,100.00
2018-12-19T03:29:58.344Z,100.00
2018-12-19T03:31:04.739Z,100.00
2018-12-19T03:32:11.259Z,100.00
2018-12-19T03:33:17.618Z,100.00
2018-12-19T03:34:23.930Z,100.00
2018-12-19T03:35:30.289Z,100.00
2018-12-19T03:36:36.686Z,100.00
2018-12-19T03:37:42.988Z,100.00
2018-12-19T03:38:49.288Z,100.00
2018-12-19T03:39:55.609Z,100.00
2018-12-19T03:41:01.649Z,100.00
2018-12-19T03:42:08.010Z,100.00
2018-12-19T03:43:14.344Z,100.00
2018-12-19T03:44:20.702Z,100.00
2018-12-19T03:45:27.094Z,100.00
2018-12-19T03:46:33.473Z,100.00
2018-12-19T03:47:39.853Z,100.00
2018-12-19T03:48:51.645Z,100.00
2018-12-19T03:49:57.791Z,100.00
2018-12-19T03:51:04.184Z,100.00
2018-12-19T03:52:10.540Z,100.00
2018-12-19T03:53:16.900Z,100.00
2018-12-19T03:54:22.639Z,100.00
2018-12-19T03:55:29.005Z,100.00
2018-12-19T03:56:35.377Z,100.00
2018-12-19T03:57:41.736Z,100.00
2018-12-19T03:58:48.602Z,100.00
2018-12-19T03:59:55.390Z,100.00
2018-12-19T04:01:01.807Z,100.00
2018-12-19T04:02:08.316Z,100.00
2018-12-19T04:03:14.696Z,100.00
2018-12-19T04:04:21.055Z,100.00
2018-12-19T04:05:27.388Z,100.00
2018-12-19T04:06:33.774Z,100.00
2018-12-19T04:07:40.131Z,100.00
2018-12-19T04:08:46.473Z,100.00
2018-12-19T04:09:57.792Z,100.00
2018-12-19T04:10:59.302Z,100.00
2018-12-19T04:12:05.305Z,100.00
2018-12-19T04:13:11.630Z,100.00
2018-12-19T04:14:18.028Z,100.00
2018-12-19T04:15:24.422Z,100.00
2018-12-19T04:16:30.812Z,100.00
2018-12-19T04:17:37.125Z,100.00
2018-12-19T04:18:43.711Z,100.00
2018-12-19T04:19:50.627Z,100.00
2018-12-19T04:20:57.651Z,100.00
2018-12-19T04:22:04.812Z,100.00
2018-12-19T04:23:11.708Z,100.00
2018-12-19T04:24:18.265Z,100.00
2018-12-19T04:25:24.635Z,100.00
2018-12-19T04:26:31.030Z,100.00
2018-12-19T04:27:37.380Z,100.00
2018-12-19T04:28:43.806Z,100.00
2018-12-19T04:29:50.616Z,100.00
2018-12-19T04:30:56.988Z,100.00
2018-12-19T04:32:03.398Z,100.00
2018-12-19T04:33:09.733Z,100.00
2018-12-19T04:34:16.116Z,100.00
2018-12-19T04:35:22.482Z,100.00
2018-12-19T04:36:28.852Z,100.00
2018-12-19T04:37:35.191Z,100.00
2018-12-19T04:38:41.281Z,100.00
2018-12-19T04:39:47.696Z,100.00
2018-12-19T04:40:54.078Z,100.00
2018-12-19T04:42:00.449Z,100.00
2018-12-19T04:43:06.821Z,100.00
2018-12-19T04:44:13.177Z,100.00
2018-12-19T04:45:19.573Z,100.00
2018-12-19T04:46:26.001Z,100.00
2018-12-19T04:47:32.309Z,100.00
2018-12-19T04:48:38.706Z,100.00
2018-12-19T04:49:45.500Z,100.00
2018-12-19T04:50:52.022Z,100.00
2018-12-19T04:51:58.442Z,100.00
2018-12-19T04:53:04.809Z,100.00
2018-12-19T04:54:11.157Z,100.00
2018-12-19T04:55:17.545Z,100.00
2018-12-19T04:56:23.883Z,100.00
2018-12-19T04:57:30.257Z,100.00
2018-12-19T04:58:37.856Z,100.00
2018-12-19T04:59:43.004Z,100.00
2018-12-19T05:00:49.368Z,100.00
2018-12-19T05:01:55.816Z,100.00
2018-12-19T05:03:02.165Z,100.00
2018-12-19T05:04:08.518Z,100.00
2018-12-19T05:05:14.561Z,100.00
2018-12-19T05:06:20.977Z,100.00
2018-12-19T05:07:27.099Z,100.00
2018-12-19T05:08:33.503Z,100.00
2018-12-19T05:09:40.230Z,100.00
2018-12-19T05:10:46.655Z,100.00
2018-12-19T05:11:53.245Z,100.00
2018-12-19T05:13:00.564Z,100.00
2018-12-19T05:14:06.133Z,100.00
2018-12-19T05:15:12.650Z,100.00
2018-12-19T05:16:19.035Z,100.00
2018-12-19T05:17:25.405Z,100.00
2018-12-19T05:18:31.789Z,100.00
2018-12-19T05:19:38.164Z,100.00
2018-12-19T05:20:44.540Z,100.00
2018-12-19T05:21:50.888Z,100.00
2018-12-19T05:22:57.255Z,100.00
2018-12-19T05:24:03.599Z,100.00
2018-12-19T05:25:10.013Z,100.00
2018-12-19T05:26:16.384Z,100.00
2018-12-19T05:27:22.724Z,100.00
2018-12-19T05:28:29.088Z,100.00
2018-12-19T05:29:35.438Z,100.00
2018-12-19T05:30:41.815Z,100.00
2018-12-19T05:31:48.164Z,100.00
2018-12-19T05:32:54.528Z,100.00
2018-12-19T05:34:00.873Z,100.00
2018-12-19T05:35:06.499Z,100.00
2018-12-19T05:36:12.852Z,100.00
2018-12-19T05:37:19.171Z,100.00
2018-12-19T05:38:25.506Z,100.00
2018-12-19T05:39:31.830Z,100.00
2018-12-19T05:40:38.170Z,100.00
2018-12-19T05:41:44.559Z,100.00
2018-12-19T05:42:50.924Z,100.00
2018-12-19T05:43:57.236Z,100.00
2018-12-19T05:45:03.203Z,100.00
2018-12-19T05:46:09.188Z,100.00
2018-12-19T05:47:15.280Z,100.00
2018-12-19T05:48:21.728Z,100.00
2018-12-19T05:49:28.094Z,100.00
2018-12-19T05:50:34.185Z,100.00
2018-12-19T05:51:40.582Z,100.00
2018-12-19T05:52:46.674Z,100.00
2018-12-19T05:53:53.002Z,100.00
2018-12-19T05:54:59.146Z,100.00
2018-12-19T05:56:05.541Z,100.00
2018-12-19T05:57:11.692Z,100.00
2018-12-19T05:58:18.042Z,100.00
2018-12-19T05:59:24.353Z,100.00
2018-12-19T06:00:32.554Z,100.00
2018-12-19T06:01:38.916Z,100.00
2018-12-19T06:02:45.232Z,100.00
2018-12-19T06:03:51.595Z,100.00
2018-12-19T06:04:57.908Z,100.00
2018-12-19T06:06:03.891Z,100.00
2018-12-19T06:07:10.242Z,100.00
2018-12-19T06:08:16.569Z,100.00
2018-12-19T06:09:23.108Z,100.00
2018-12-19T06:10:29.480Z,100.00
2018-12-19T06:11:36.028Z,100.00
2018-12-19T06:12:42.383Z,100.00
2018-12-19T06:13:48.755Z,100.00
2018-12-19T06:14:55.144Z,100.00
2018-12-19T06:16:01.578Z,100.00
2018-12-19T06:17:07.634Z,100.00
2018-12-19T06:18:14.215Z,100.00
2018-12-19T06:19:21.417Z,100.00
2018-12-19T06:20:27.845Z,100.00
2018-12-19T06:21:34.233Z,100.00
2018-12-19T06:22:40.761Z,100.00
2018-12-19T06:23:46.865Z,100.00
2018-12-19T06:24:55.111Z,100.00
2018-12-19T06:26:02.512Z,100.00
2018-12-19T06:27:08.895Z,100.00
2018-12-19T06:28:15.245Z,100.00
2018-12-19T06:29:21.601Z,100.00
2018-12-19T06:30:27.756Z,100.00
2018-12-19T06:31:33.734Z,100.00
2018-12-19T06:32:39.865Z,100.00
2018-12-19T06:33:45.942Z,100.00
2018-12-19T06:34:51.969Z,100.00
2018-12-19T06:35:58.331Z,100.00
2018-12-19T06:37:04.729Z,100.00
2018-12-19T06:38:11.113Z,100.00
2018-12-19T06:39:17.497Z,100.00
2018-12-19T06:40:23.868Z,100.00
2018-12-19T06:41:30.216Z,100.00
2018-12-19T06:42:36.573Z,100.00
2018-12-19T06:43:42.878Z,100.00
2018-12-19T06:44:49.222Z,100.00
2018-12-19T06:45:55.566Z,100.00
2018-12-19T06:47:01.953Z,100.00
2018-12-19T06:48:08.357Z,100.00
2018-12-19T06:49:14.738Z,100.00
2018-12-19T06:50:21.080Z,100.00
2018-12-19T06:51:27.470Z,100.00
2018-12-19T06:52:33.836Z,100.00
2018-12-19T06:53:40.154Z,100.00
2018-12-19T06:54:46.490Z,100.00
2018-12-19T06:55:52.846Z,100.00
2018-12-19T06:56:59.201Z,100.00
2018-12-19T06:58:05.170Z,100.00
2018-12-19T06:59:11.517Z,100.00
2018-12-19T07:00:17.886Z,100.00
2018-12-19T07:01:24.503Z,100.00
2018-12-19T07:02:31.066Z,100.00
2018-12-19T07:03:38.325Z,100.00
2018-12-19T07:04:45.422Z,100.00
2018-12-19T07:05:51.817Z,100.00
2018-12-19T07:06:58.165Z,100.00
2018-12-19T07:08:04.175Z,100.00
2018-12-19T07:09:10.253Z,100.00
2018-12-19T07:10:16.640Z,100.00
2018-12-19T07:11:23.057Z,100.00
2018-12-19T07:12:29.727Z,100.00
2018-12-19T07:13:36.013Z,100.00
2018-12-19T07:14:42.349Z,100.00
2018-12-19T07:15:48.667Z,100.00
2018-12-19T07:16:55.821Z,100.00
2018-12-19T07:18:02.902Z,100.00
2018-12-19T07:19:10.507Z,100.00
2018-12-19T07:20:18.232Z,100.00
2018-12-19T07:21:26.257Z,100.00
2018-12-19T07:22:34.535Z,100.00
2018-12-19T07:23:41.586Z,100.00
2018-12-19T07:24:49.855Z,100.00
2018-12-19T07:25:58.254Z,100.00
2018-12-19T07:27:06.487Z,100.00
2018-12-19T07:28:15.285Z,100.00
2018-12-19T07:29:22.963Z,100.00
2018-12-19T07:30:32.101Z,100.00
2018-12-19T07:31:39.483Z,100.00
2018-12-19T07:32:47.374Z,100.00
2018-12-19T07:33:55.541Z,100.00
2018-12-19T07:35:02.580Z,100.00
2018-12-19T07:36:09.886Z,100.00
2018-12-19T07:37:16.612Z,100.00
2018-12-19T07:38:22.953Z,100.00
2018-12-19T07:39:29.319Z,100.00
2018-12-19T07:40:35.709Z,100.00
2018-12-19T07:41:42.129Z,100.00
2018-12-19T07:42:48.509Z,100.00
2018-12-19T07:43:54.865Z,100.00
2018-12-19T07:45:01.199Z,100.00
2018-12-19T07:46:07.516Z,100.00
2018-12-19T07:47:13.938Z,100.00
2018-12-19T07:48:20.045Z,100.00
2018-12-19T07:49:26.375Z,100.00
2018-12-19T07:50:32.724Z,100.00
2018-12-19T07:51:39.104Z,100.00
2018-12-19T07:52:45.257Z,100.00
2018-12-19T07:53:51.640Z,100.00
2018-12-19T07:54:58.027Z,100.00
2018-12-19T07:56:04.154Z,100.00
2018-12-19T07:57:10.540Z,100.00
2018-12-19T07:58:16.849Z,100.00
2018-12-19T07:59:23.205Z,100.00
2018-12-19T08:00:29.575Z,100.00
2018-12-19T08:01:35.964Z,100.00
2018-12-19T08:02:42.341Z,100.00
2018-12-19T08:03:48.642Z,100.00
2018-12-19T08:04:54.729Z,100.00
2018-12-19T08:06:01.058Z,100.00
2018-12-19T08:07:07.412Z,100.00
2018-12-19T08:08:13.757Z,100.00
2018-12-19T08:09:20.120Z,100.00
2018-12-19T08:10:26.468Z,100.00
2018-12-19T08:11:32.808Z,100.00
2018-12-19T08:12:39.199Z,100.00
2018-12-19T08:13:45.530Z,100.00
2018-12-19T08:14:51.600Z,100.00
2018-12-19T08:15:57.925Z,100.00
2018-12-19T08:17:05.020Z,100.00
2018-12-19T08:18:12.226Z,100.00
2018-12-19T08:19:21.021Z,100.00
2018-12-19T08:20:28.817Z,100.00
2018-12-19T08:21:36.164Z,100.00
2018-12-19T08:22:43.028Z,100.00
2018-12-19T08:23:51.277Z,100.00
2018-12-19T08:24:59.337Z,100.00
2018-12-19T08:26:07.776Z,100.00
2018-12-19T08:27:15.088Z,100.00
2018-12-19T08:28:22.918Z,100.00
2018-12-19T08:29:30.400Z,100.00
2018-12-19T08:30:37.931Z,100.00
2018-12-19T08:31:46.409Z,100.00
2018-12-19T08:32:54.204Z,100.00
2018-12-19T08:34:02.278Z,100.00
2018-12-19T08:35:10.326Z,100.00
2018-12-19T08:36:17.703Z,100.00
2018-12-19T08:37:25.592Z,100.00
2018-12-19T08:38:32.939Z,100.00
2018-12-19T08:39:40.219Z,100.00
2018-12-19T08:40:47.761Z,100.00
2018-12-19T08:41:54.911Z,100.00
2018-12-19T08:43:02.738Z,100.00
2018-12-19T08:44:10.151Z,100.00
2018-12-19T08:45:18.023Z,100.00
2018-12-19T08:46:25.144Z,100.00
2018-12-19T08:47:32.483Z,100.00
2018-12-19T08:48:41.070Z,100.00
2018-12-19T08:49:48.418Z,100.00
2018-12-19T08:50:56.141Z,100.00
2018-12-19T08:52:03.775Z,100.00
2018-12-19T08:53:11.230Z,100.00
2018-12-19T08:54:18.981Z,100.00
2018-12-19T08:55:26.306Z,100.00
2018-12-19T08:56:33.367Z,100.00
2018-12-19T08:57:40.326Z,100.00
2018-12-19T08:58:47.485Z,100.00
2018-12-19T08:59:54.730Z,100.00
2018-12-19T09:01:02.016Z,100.00
2018-12-19T09:02:09.416Z,100.00
2018-12-19T09:03:16.557Z,100.00
2018-12-19T09:04:25.939Z,100.00
2018-12-19T09:05:31.759Z,100.00
2018-12-19T09:06:40.083Z,100.00
2018-12-19T09:07:47.520Z,100.00
2018-12-19T09:08:55.056Z,100.00
2018-12-19T09:10:02.036Z,100.00
2018-12-19T09:11:08.051Z,100.00
2018-12-19T09:12:14.430Z,100.00
2018-12-19T09:13:20.737Z,100.00
2018-12-19T09:14:27.069Z,100.00
2018-12-19T09:15:38.829Z,100.00
2018-12-19T09:16:45.188Z,100.00
2018-12-19T09:17:51.577Z,100.00
2018-12-19T09:18:57.905Z,100.00
2018-12-19T09:20:03.640Z,100.00
2018-12-19T09:21:10.009Z,100.00
2018-12-19T09:22:16.129Z,100.00
2018-12-19T09:23:22.488Z,100.00
2018-12-19T09:24:28.482Z,100.00
2018-12-19T09:25:34.836Z,100.00
2018-12-19T09:26:41.239Z,100.00
2018-12-19T09:27:47.641Z,100.00
2018-12-19T09:28:54.021Z,100.00
2018-12-19T09:30:00.004Z,100.00
2018-12-19T09:31:05.962Z,100.00
2018-12-19T09:32:12.296Z,100.00
2018-12-19T09:33:18.683Z,100.00
2018-12-19T09:34:25.000Z,100.00
2018-12-19T09:35:31.326Z,100.00
2018-12-19T09:36:37.679Z,100.00
2018-12-19T09:37:44.035Z,100.00
2018-12-19T09:38:50.421Z,100.00
2018-12-19T09:39:56.724Z,100.00
2018-12-19T09:41:03.066Z,100.00
2018-12-19T09:42:09.453Z,100.00
2018-12-19T09:43:15.820Z,100.00
2018-12-19T09:44:22.196Z,100.00
2018-12-19T09:45:28.519Z,100.00
2018-12-19T09:46:34.873Z,100.00
2018-12-19T09:47:42.031Z,100.00
2018-12-19T09:48:48.359Z,100.00
2018-12-19T09:49:54.711Z,100.00
2018-12-19T09:51:01.082Z,100.00
2018-12-19T09:52:07.106Z,100.00
2018-12-19T09:53:13.262Z,100.00
2018-12-19T09:54:19.613Z,99.89
2018-12-19T09:55:25.948Z,99.71
2018-12-19T09:56:32.305Z,99.72
2018-12-19T09:57:38.474Z,99.59
2018-12-19T09:58:44.822Z,99.90
2018-12-19T09:59:51.208Z,99.46
2018-12-19T10:00:57.562Z,99.34
2018-12-19T10:02:03.670Z,99.62
2018-12-19T10:03:10.025Z,99.66
2018-12-19T10:04:16.412Z,99.28
2018-12-19T10:05:22.772Z,98.63
2018-12-19T10:06:29.101Z,98.20
2018-12-19T10:07:35.489Z,98.21
2018-12-19T10:08:41.760Z,98.10
2018-12-19T10:09:49.181Z,96.73
2018-12-19T10:10:56.047Z,96.69
2018-12-19T10:12:02.441Z,96.59
2018-12-19T10:13:08.848Z,96.60
2018-12-19T10:14:15.181Z,96.25
2018-12-19T10:15:21.513Z,96.65
2018-12-19T10:16:27.815Z,97.47
2018-12-19T10:17:33.852Z,97.12
2018-12-19T10:18:40.160Z,96.89
2018-12-19T10:19:46.494Z,96.85
2018-12-19T10:20:52.820Z,97.33
2018-12-19T10:21:59.247Z,96.32
2018-12-19T10:23:05.272Z,96.86
2018-12-19T10:24:11.617Z,96.81
2018-12-19T10:25:17.938Z,97.08
2018-12-19T10:26:24.294Z,97.30
2018-12-19T10:27:30.628Z,96.92
2018-12-19T10:28:36.973Z,97.27
2018-12-19T10:29:43.301Z,97.03
2018-12-19T10:30:49.635Z,97.07
2018-12-19T10:31:56.050Z,96.90
2018-12-19T10:33:02.456Z,96.13
2018-12-19T10:34:08.806Z,95.79
2018-12-19T10:35:15.133Z,96.38
2018-12-19T10:36:21.222Z,96.24
2018-12-19T10:37:27.586Z,96.22
2018-12-19T10:38:33.892Z,95.68
2018-12-19T10:39:39.877Z,95.97
2018-12-19T10:40:46.187Z,96.18
2018-12-19T10:41:52.468Z,97.11
2018-12-19T10:42:58.839Z,96.96
2018-12-19T10:44:04.968Z,96.62
2018-12-19T10:45:10.990Z,96.58
2018-12-19T10:46:17.312Z,96.97
2018-12-19T10:47:23.616Z,95.72
2018-12-19T10:48:29.936Z,95.64
2018-12-19T10:49:36.260Z,95.74
2018-12-19T10:50:42.557Z,95.07
2018-12-19T10:51:48.866Z,95.17
2018-12-19T10:52:55.199Z,95.24
2018-12-19T10:54:02.058Z,95.11
2018-12-19T10:55:08.561Z,95.21
2018-12-19T10:56:14.914Z,94.86
2018-12-19T10:57:21.294Z,95.21
2018-12-19T10:58:27.581Z,94.74
2018-12-19T10:59:33.868Z,94.01
2018-12-19T11:00:45.609Z,94.35
2018-12-19T11:01:51.928Z,93.78
2018-12-19T11:02:58.062Z,94.55
2018-12-19T11:04:04.076Z,93.71
2018-12-19T11:05:10.356Z,92.69
2018-12-19T11:06:16.649Z,92.99
2018-12-19T11:07:23.016Z,93.21
2018-12-19T11:08:29.309Z,92.60
2018-12-19T11:09:35.674Z,92.53
2018-12-19T11:10:42.011Z,92.48
2018-12-19T11:11:48.316Z,92.46
2018-12-19T11:12:54.686Z,92.25
2018-12-19T11:14:00.960Z,93.00
2018-12-19T11:15:06.337Z,92.69
2018-12-19T11:16:12.752Z,92.01
2018-12-19T11:17:19.106Z,91.97
2018-12-19T11:18:25.432Z,92.05
2018-12-19T11:19:31.761Z,92.54
2018-12-19T11:20:38.102Z,93.04
2018-12-19T11:21:44.477Z,93.33
2018-12-19T11:22:50.843Z,92.71
2018-12-19T11:23:56.869Z,92.04
2018-12-19T11:25:02.810Z,92.06
2018-12-19T11:26:09.153Z,92.20
2018-12-19T11:27:15.086Z,91.62
2018-12-19T11:28:21.403Z,91.63
2018-12-19T11:29:27.700Z,91.17
2018-12-19T11:30:33.668Z,91.49
2018-12-19T11:31:39.604Z,91.63
2018-12-19T11:32:46.009Z,91.62
2018-12-19T11:33:52.310Z,91.32
2018-12-19T11:34:58.666Z,91.89
2018-12-19T11:36:04.717Z,92.38
2018-12-19T11:37:11.090Z,91.32
2018-12-19T11:38:17.448Z,91.18
2018-12-19T11:39:23.809Z,91.47
2018-12-19T11:40:30.140Z,91.45
2018-12-19T11:41:39.180Z,91.59
2018-12-19T11:42:42.888Z,92.16
2018-12-19T11:43:49.267Z,92.45
2018-12-19T11:44:56.867Z,92.23
2018-12-19T11:46:01.593Z,91.50
2018-12-19T11:47:07.965Z,91.70
2018-12-19T11:48:14.354Z,91.78
2018-12-19T11:49:20.654Z,91.44
2018-12-19T11:50:26.987Z,92.43
2018-12-19T11:51:33.303Z,92.67
2018-12-19T11:52:39.620Z,91.21
2018-12-19T11:53:46.012Z,89.83
2018-12-19T11:54:52.320Z,89.60
2018-12-19T11:55:58.687Z,88.97
2018-12-19T11:57:04.787Z,90.04
2018-12-19T11:58:11.427Z,89.61
2018-12-19T11:59:17.929Z,90.10
2018-12-19T12:00:24.332Z,90.52
2018-12-19T12:01:30.731Z,90.58
2018-12-19T12:02:37.135Z,90.27
2018-12-19T12:03:43.164Z,89.68
2018-12-19T12:04:49.520Z,88.92
2018-12-19T12:05:55.815Z,88.97
2018-12-19T12:07:01.510Z,88.66
2018-12-19T12:08:07.891Z,88.82
2018-12-19T12:09:14.138Z,88.82
2018-12-19T12:10:20.162Z,88.77
2018-12-19T12:11:26.765Z,89.33
2018-12-19T12:12:33.105Z,90.85
2018-12-19T12:13:39.458Z,91.59
2018-12-19T12:14:45.797Z,92.08
2018-12-19T12:15:52.116Z,92.66
2018-12-19T12:16:58.440Z,92.29
2018-12-19T12:18:04.795Z,94.00
2018-12-19T12:19:11.185Z,93.61
2018-12-19T12:20:17.520Z,94.57
2018-12-19T12:21:23.830Z,95.43
2018-12-19T12:22:30.174Z,96.78
2018-12-19T12:23:36.560Z,97.06
2018-12-19T12:24:42.885Z,97.81
2018-12-19T12:25:49.240Z,98.14
2018-12-19T12:26:55.695Z,97.49
2018-12-19T12:28:02.043Z,97.88
2018-12-19T12:29:08.396Z,97.80
2018-12-19T12:30:14.366Z,98.63
2018-12-19T12:31:20.667Z,99.06
2018-12-19T12:32:27.026Z,99.80
2018-12-19T12:33:33.420Z,100.00
2018-12-19T12:34:39.781Z,100.00
2018-12-19T12:35:45.977Z,100.00
2018-12-19T12:36:52.285Z,100.00
2018-12-19T12:37:58.656Z,100.00
2018-12-19T12:39:04.075Z,100.00
2018-12-19T12:40:10.012Z,100.00
2018-12-19T12:41:17.579Z,100.00
2018-12-19T12:42:24.386Z,100.00
2018-12-19T12:43:30.821Z,100.00
2018-12-19T12:44:36.925Z,100.00
2018-12-19T12:45:43.348Z,100.00
2018-12-19T12:46:49.701Z,100.00
2018-12-19T12:47:56.038Z,100.00
2018-12-19T12:49:02.355Z,100.00
2018-12-19T12:50:08.007Z,100.00
2018-12-19T12:51:14.312Z,100.00
2018-12-19T12:52:20.661Z,100.00
2018-12-19T12:53:27.058Z,100.00
2018-12-19T12:54:33.435Z,100.00
2018-12-19T12:55:39.823Z,100.00
2018-12-19T12:56:46.215Z,100.00
2018-12-19T12:57:52.527Z,100.00
2018-12-19T12:58:58.974Z,100.00
2018-12-19T13:00:04.618Z,100.00
2018-12-19T13:01:11.002Z,100.00
2018-12-19T13:02:17.377Z,100.00
2018-12-19T13:03:23.752Z,100.00
2018-12-19T13:04:30.067Z,100.00
2018-12-19T13:05:36.464Z,100.00
2018-12-19T13:06:42.808Z,100.00
2018-12-19T13:07:49.221Z,100.00
2018-12-19T13:08:55.616Z,100.00
2018-12-19T13:10:01.941Z,100.00
2018-12-19T13:11:08.254Z,100.00
2018-12-19T13:12:14.636Z,100.00
2018-12-19T13:13:20.998Z,100.00
2018-12-19T13:14:27.089Z,100.00
2018-12-19T13:15:39.121Z,100.00
2018-12-19T13:16:45.456Z,100.00
2018-12-19T13:17:51.598Z,100.00
2018-12-19T13:18:57.977Z,100.00
2018-12-19T13:20:03.671Z,100.00
2018-12-19T13:21:10.017Z,100.00
2018-12-19T13:22:16.378Z,100.00
2018-12-19T13:23:23.258Z,100.00
2018-12-19T13:24:29.310Z,100.00
2018-12-19T13:25:35.677Z,100.00
2018-12-19T13:26:42.049Z,100.00
2018-12-19T13:27:48.468Z,100.00
2018-12-19T13:28:54.996Z,100.00
2018-12-19T13:30:01.360Z,100.00
2018-12-19T13:31:07.336Z,100.00
2018-12-19T13:32:13.098Z,100.00
2018-12-19T13:33:19.529Z,100.00
2018-12-19T13:34:25.831Z,100.00
2018-12-19T13:35:32.197Z,100.00
2018-12-19T13:36:38.562Z,100.00
2018-12-19T13:37:44.877Z,100.00
2018-12-19T13:38:51.226Z,100.00
2018-12-19T13:39:57.560Z,100.00
2018-12-19T13:41:03.918Z,100.00
2018-12-19T13:42:10.213Z,100.00
2018-12-19T13:43:16.648Z,100.00
2018-12-19T13:44:23.054Z,100.00
2018-12-19T13:45:29.529Z,100.00
2018-12-19T13:46:36.004Z,100.00
2018-12-19T13:47:42.310Z,100.00
2018-12-19T13:48:48.673Z,100.00
2018-12-19T13:49:55.017Z,100.00
2018-12-19T13:51:01.376Z,100.00
2018-12-19T13:52:07.405Z,100.00
2018-12-19T13:53:13.774Z,100.00
2018-12-19T13:54:20.177Z,100.00
2018-12-19T13:55:26.480Z,100.00